55FD weather

Dotson Airport
Baker, Florida, United States

Public forecast

Using degrees Fahrenheit for public forecast. Weather courtesy of forecast.io.

METAR (pilot weather report)

Closest report is Bob Sikes Airport, 8.9 nm (16.4 km) ESE. Retrieved 2017/12/15 21:53 UTC (31 minutes ago):

KCEW 152153Z AUTO 36006KT 10SM SCT075 BKN100 OVC110 08/M01 A3017 RMK AO2 RAE2055 SLP217 P0000 T00831006

TAF (pilot weather forecast)

Closest forecast is Duke Field, 13.2 nm (24.5 km) SE. Retrieved 2017/12/15 18:09 UTC (4 hours ago):

TAF KEGI 151800Z 1518/1624 33012KT 9999 SCT090 BKN150 QNH3014INS TEMPO 1518/1521 9000 -RA BECMG 1606/1607 36012KT 9999 BKN070 OVC150 QNH3015INS BECMG 1614/1615 07008KT 9999 SCT040 BKN070 QNH3025INS TX14/1519Z TN06/1612Z FCST BY USAF WX MET TECH